KOWX

Putnam County Airport

Ottawa, Ohio, USA
METAR KOWX 171835Z AUTO 30016G24KT 10SM SCT035 BKN041 OVC050 10/02 A3022 RMK AO1
Observed Flight Rules
Oct-17 @ 18:35 UTC (43 minutes ago) Visual Flight Rules
Wind Visibility Clouds
300° at 16 knots
 Gusting to 24 knots
10 miles
  • Scattered at 3,500' AGL
  • Broken at 4,100' AGL
  • Overcast at 5,000' AGL
Temperatures Readings
Current 10°C / 50°F
Dewpoint 2°C / 36°F
Humidity 58%
Altimeter 30.22" Hg
Pressure 1023 hPa
Elevation 233
METAR KOWX 171835Z AUTO 30016G24KT 10SM SCT035 BKN041 OVC050 10/02 A3022 RMK AO1
Observed Flight Rules
Oct-17 @ 18:35 UTC
(43 minutes ago)
VFR
Wind Visibility
300° at 16 knots
 Gusting to 24 knots
10 miles
Clouds
  • Scattered at 3,500' AGL
  • Broken at 4,100' AGL
  • Overcast at 5,000' AGL
Temperature Dewpoint
10°C / 50°F 2°C / 36°F
Humidity Altimeter Pressure
58% 30.22" Hg 1023 hPa